createdAt,value
2023-05-08T00:01:11.519Z,4.80
2023-05-08T00:03:39.006Z,4.60
2023-05-08T00:06:06.726Z,5.10
2023-05-08T00:08:33.876Z,4.93
2023-05-08T00:11:01.150Z,5.60
2023-05-08T00:13:28.347Z,5.07
2023-05-08T00:15:55.578Z,4.97
2023-05-08T00:18:22.929Z,5.13
2023-05-08T00:20:50.144Z,5.30
2023-05-08T00:23:17.399Z,5.63
2023-05-08T00:25:44.592Z,4.57
2023-05-08T00:28:11.758Z,4.73
2023-05-08T00:30:39.025Z,5.13
2023-05-08T00:33:06.255Z,5.50
2023-05-08T00:35:33.848Z,5.37
2023-05-08T00:38:01.425Z,4.80
2023-05-08T00:40:28.698Z,5.60
2023-05-08T00:42:55.950Z,4.90
2023-05-08T00:45:23.187Z,5.20
2023-05-08T00:47:50.908Z,5.23
2023-05-08T00:50:18.844Z,4.67
2023-05-08T00:52:47.005Z,5.37
2023-05-08T00:55:14.402Z,5.97
2023-05-08T00:57:41.705Z,5.07
2023-05-08T01:00:10.216Z,5.57
2023-05-08T01:02:37.732Z,5.53
2023-05-08T01:05:05.197Z,5.93
2023-05-08T01:07:33.061Z,5.50
2023-05-08T01:10:00.361Z,5.87
2023-05-08T01:12:27.541Z,6.60
2023-05-08T01:15:14.549Z,5.50
2023-05-08T01:17:41.861Z,5.43
2023-05-08T01:20:41.594Z,6.93
2023-05-08T01:23:18.614Z,4.97
2023-05-08T01:26:00.492Z,5.93
2023-05-08T01:28:27.702Z,5.70
2023-05-08T01:31:01.017Z,4.60
2023-05-08T01:33:28.294Z,5.30
2023-05-08T01:35:59.956Z,5.70
2023-05-08T01:38:27.940Z,5.30
2023-05-08T01:41:04.118Z,5.37
2023-05-08T01:43:50.921Z,5.53
2023-05-08T01:46:20.590Z,5.10
2023-05-08T01:48:53.360Z,6.20
2023-05-08T01:51:23.377Z,5.73
2023-05-08T01:53:53.176Z,5.77
2023-05-08T01:56:22.576Z,5.77
2023-05-08T01:58:54.937Z,4.93
2023-05-08T02:01:23.626Z,6.13
2023-05-08T02:03:51.456Z,5.50
2023-05-08T02:06:22.425Z,6.13
2023-05-08T02:08:50.292Z,6.87
2023-05-08T02:11:18.900Z,6.67
2023-05-08T02:13:48.035Z,5.43
2023-05-08T02:16:15.890Z,5.20
2023-05-08T02:18:47.977Z,6.03
2023-05-08T02:21:15.584Z,6.17
2023-05-08T02:23:44.421Z,6.53
2023-05-08T02:26:12.280Z,5.87
2023-05-08T02:28:40.686Z,6.80
2023-05-08T02:31:08.722Z,6.10
2023-05-08T02:33:36.259Z,6.37
2023-05-08T02:36:04.057Z,6.90
2023-05-08T02:38:32.233Z,6.00
2023-05-08T02:41:02.856Z,6.90
2023-05-08T02:43:30.259Z,5.70
2023-05-08T02:46:24.200Z,6.57
2023-05-08T02:48:57.175Z,6.07
2023-05-08T02:51:43.276Z,6.93
2023-05-08T02:54:13.456Z,5.63
2023-05-08T02:56:59.757Z,6.37
2023-05-08T02:59:32.450Z,6.63
2023-05-08T03:02:07.975Z,5.57
2023-05-08T03:04:36.997Z,6.23
2023-05-08T03:07:04.938Z,7.00
2023-05-08T03:09:39.713Z,6.53
2023-05-08T03:12:09.019Z,6.83
2023-05-08T03:14:38.024Z,7.87
2023-05-08T03:17:06.902Z,6.40
2023-05-08T03:19:36.706Z,6.50
2023-05-08T03:22:07.842Z,6.80
2023-05-08T03:24:39.252Z,7.73
2023-05-08T03:27:06.949Z,6.93
2023-05-08T03:29:35.096Z,5.70
2023-05-08T03:32:02.912Z,6.10
2023-05-08T03:34:31.195Z,9.50
2023-05-08T03:36:58.519Z,7.10
2023-05-08T03:39:26.885Z,7.63
2023-05-08T03:41:56.037Z,6.30
2023-05-08T03:44:23.932Z,6.03
2023-05-08T03:46:53.355Z,7.63
2023-05-08T03:49:20.882Z,7.53
2023-05-08T03:51:48.269Z,6.70
2023-05-08T03:54:15.607Z,7.33
2023-05-08T03:56:45.913Z,7.43
2023-05-08T03:59:13.751Z,6.03
2023-05-08T04:01:47.081Z,6.93
2023-05-08T04:04:30.359Z,6.10
2023-05-08T04:07:01.400Z,5.20
2023-05-08T04:09:45.219Z,6.03
2023-05-08T04:12:20.970Z,7.03
2023-05-08T04:14:56.420Z,7.70
2023-05-08T04:17:35.671Z,7.97
2023-05-08T04:20:04.911Z,5.90
2023-05-08T04:22:33.834Z,7.07
2023-05-08T04:25:03.573Z,7.47
2023-05-08T04:27:31.025Z,20.53
2023-05-08T04:29:58.657Z,6.80
2023-05-08T04:32:26.999Z,6.03
2023-05-08T04:34:55.212Z,6.37
2023-05-08T04:37:30.530Z,5.73
2023-05-08T04:39:59.357Z,5.50
2023-05-08T04:42:27.182Z,5.70
2023-05-08T04:44:57.377Z,5.93
2023-05-08T04:47:24.862Z,5.97
2023-05-08T04:49:52.476Z,5.27
2023-05-08T04:52:19.689Z,5.57
2023-05-08T04:54:46.934Z,5.67
2023-05-08T04:57:14.509Z,4.57
2023-05-08T04:59:41.740Z,4.97
2023-05-08T05:02:09.241Z,5.27
2023-05-08T05:04:37.158Z,4.90
2023-05-08T05:07:05.767Z,4.00
2023-05-08T05:09:37.154Z,4.70
2023-05-08T05:12:05.427Z,4.83
2023-05-08T05:14:33.636Z,4.53
2023-05-08T05:17:01.110Z,4.30
2023-05-08T05:19:28.403Z,4.30
2023-05-08T05:21:56.405Z,5.73
2023-05-08T05:24:23.832Z,4.23
2023-05-08T05:26:51.076Z,5.63
2023-05-08T05:29:18.715Z,4.50
2023-05-08T05:31:46.270Z,3.90
2023-05-08T05:34:13.909Z,3.47
2023-05-08T05:36:41.778Z,3.73
2023-05-08T05:39:09.287Z,3.70
2023-05-08T05:41:36.465Z,3.93
2023-05-08T05:44:04.104Z,3.13
2023-05-08T05:46:34.524Z,3.93
2023-05-08T05:49:03.701Z,3.30
2023-05-08T05:51:31.997Z,3.40
2023-05-08T05:53:59.289Z,3.30
2023-05-08T05:56:27.776Z,3.70
2023-05-08T05:58:55.428Z,3.83
2023-05-08T06:01:24.736Z,3.37
2023-05-08T06:03:52.288Z,3.17
2023-05-08T06:06:19.511Z,3.60
2023-05-08T06:08:48.586Z,3.20
2023-05-08T06:11:15.898Z,3.73
2023-05-08T06:13:44.330Z,3.10
2023-05-08T06:16:12.620Z,3.60
2023-05-08T06:18:39.865Z,2.80
2023-05-08T06:21:07.127Z,3.00
2023-05-08T06:23:34.342Z,2.80
2023-05-08T06:26:01.816Z,3.13
2023-05-08T06:28:29.159Z,2.80
2023-05-08T06:30:56.349Z,2.93
2023-05-08T06:33:26.120Z,3.10
2023-05-08T06:35:54.046Z,2.93
2023-05-08T06:38:21.311Z,2.73
2023-05-08T06:40:50.117Z,3.23
2023-05-08T06:43:17.369Z,3.00
2023-05-08T06:45:45.517Z,3.40
2023-05-08T06:48:12.864Z,3.10
2023-05-08T06:50:40.756Z,2.73
2023-05-08T06:53:08.638Z,3.17
2023-05-08T06:55:35.794Z,3.03
2023-05-08T06:58:03.762Z,3.07
2023-05-08T07:00:31.104Z,2.80
2023-05-08T07:02:58.354Z,3.00
2023-05-08T07:05:25.649Z,3.53
2023-05-08T07:07:54.153Z,2.73
2023-05-08T07:10:22.870Z,3.10
2023-05-08T07:12:50.372Z,2.93
2023-05-08T07:15:25.256Z,2.70
2023-05-08T07:17:53.533Z,2.87
2023-05-08T07:20:21.485Z,2.70
2023-05-08T07:22:48.972Z,2.90
2023-05-08T07:25:16.266Z,2.63
2023-05-08T07:27:43.848Z,2.27
2023-05-08T07:30:11.295Z,2.30
2023-05-08T07:32:39.230Z,2.73
2023-05-08T07:35:10.858Z,2.90
2023-05-08T07:37:38.794Z,2.60
2023-05-08T07:40:06.253Z,2.63
2023-05-08T07:42:38.897Z,2.20
2023-05-08T07:45:06.224Z,2.47
2023-05-08T07:47:33.551Z,2.47
2023-05-08T07:50:00.776Z,2.10
2023-05-08T07:52:27.918Z,2.20
2023-05-08T07:54:55.119Z,2.53
2023-05-08T07:57:22.360Z,2.40
2023-05-08T07:59:49.565Z,2.37
2023-05-08T08:02:16.871Z,1.60
2023-05-08T08:04:44.263Z,1.90
2023-05-08T08:07:11.416Z,2.30
2023-05-08T08:09:38.645Z,2.00
2023-05-08T08:12:05.863Z,1.70
2023-05-08T08:14:33.382Z,1.70
2023-05-08T08:17:00.789Z,2.13
2023-05-08T08:19:29.170Z,2.13
2023-05-08T08:21:56.453Z,1.63
2023-05-08T08:24:24.165Z,2.27
2023-05-08T08:26:51.371Z,1.63
2023-05-08T08:29:18.575Z,1.60
2023-05-08T08:31:45.837Z,2.47
2023-05-08T08:34:13.587Z,1.30
2023-05-08T08:36:40.859Z,1.67
2023-05-08T08:39:11.484Z,1.33
2023-05-08T08:41:39.901Z,1.80
2023-05-08T08:44:07.404Z,1.70
2023-05-08T08:46:35.763Z,1.70
2023-05-08T08:49:04.416Z,1.80
2023-05-08T08:51:57.900Z,1.80
2023-05-08T08:54:25.286Z,1.47
2023-05-08T08:56:53.182Z,1.87
2023-05-08T08:59:20.698Z,1.30
2023-05-08T09:01:53.320Z,1.40
2023-05-08T09:04:20.867Z,1.27
2023-05-08T09:06:50.130Z,1.60
2023-05-08T09:09:17.322Z,1.60
2023-05-08T09:11:44.481Z,1.60
2023-05-08T09:14:11.690Z,1.73
2023-05-08T09:16:39.933Z,1.70
2023-05-08T09:19:07.400Z,1.50
2023-05-08T09:21:34.947Z,1.40
2023-05-08T09:24:03.497Z,1.50
2023-05-08T09:26:35.371Z,1.70
2023-05-08T09:29:09.696Z,1.27
2023-05-08T09:31:40.776Z,1.30
2023-05-08T09:34:09.412Z,1.23
2023-05-08T09:36:36.921Z,1.67
2023-05-08T09:39:04.308Z,1.40
2023-05-08T09:41:31.494Z,1.70
2023-05-08T09:44:02.766Z,1.43
2023-05-08T09:46:30.173Z,1.40
2023-05-08T09:48:58.761Z,1.60
2023-05-08T09:51:26.907Z,1.67
2023-05-08T09:53:54.961Z,1.40
2023-05-08T09:56:31.533Z,1.60
2023-05-08T09:58:58.886Z,2.10
2023-05-08T10:01:32.878Z,1.67
2023-05-08T10:04:00.735Z,1.60
2023-05-08T10:06:28.683Z,1.40
2023-05-08T10:09:08.134Z,1.60
2023-05-08T10:11:35.381Z,1.50
2023-05-08T10:14:02.665Z,1.57
2023-05-08T10:16:31.558Z,1.87
2023-05-08T10:19:02.230Z,1.73
2023-05-08T10:21:30.150Z,1.70
2023-05-08T10:23:59.600Z,1.60
2023-05-08T10:26:31.367Z,1.83
2023-05-08T10:28:59.837Z,1.40
2023-05-08T10:31:29.381Z,1.40
2023-05-08T10:33:57.200Z,1.70
2023-05-08T10:36:24.866Z,1.97
2023-05-08T10:38:52.568Z,2.00
2023-05-08T10:41:20.094Z,1.80
2023-05-08T10:43:47.881Z,1.80
2023-05-08T10:46:33.910Z,1.80
2023-05-08T10:49:01.186Z,1.60
2023-05-08T10:51:42.542Z,1.70
2023-05-08T10:54:13.382Z,2.27
2023-05-08T10:56:40.653Z,1.70
2023-05-08T10:59:17.942Z,1.60
2023-05-08T11:01:48.948Z,2.07
2023-05-08T11:04:23.177Z,1.63
2023-05-08T11:06:53.152Z,1.50
2023-05-08T11:09:24.220Z,1.73
2023-05-08T11:11:55.499Z,1.67
2023-05-08T11:14:23.917Z,2.90
2023-05-08T11:16:54.040Z,1.77
2023-05-08T11:19:22.263Z,1.70
2023-05-08T11:22:08.400Z,1.70
2023-05-08T11:24:39.513Z,1.60
2023-05-08T11:27:07.474Z,1.63
2023-05-08T11:29:36.130Z,1.60
2023-05-08T11:32:03.560Z,1.60
2023-05-08T11:34:43.440Z,1.60
2023-05-08T11:37:11.627Z,1.60
2023-05-08T11:39:38.823Z,1.93
2023-05-08T11:42:24.689Z,2.23
2023-05-08T11:45:04.352Z,3.13
2023-05-08T11:47:45.566Z,1.40
2023-05-08T11:50:14.228Z,1.50
2023-05-08T11:52:43.020Z,2.10
2023-05-08T11:55:11.152Z,1.43
2023-05-08T11:57:38.406Z,1.50
2023-05-08T12:00:09.891Z,1.57
2023-05-08T12:02:42.016Z,1.50
2023-05-08T12:05:10.472Z,1.40
2023-05-08T12:07:44.895Z,1.70
2023-05-08T12:10:12.551Z,1.80
2023-05-08T12:12:43.850Z,3.03
2023-05-08T12:15:12.482Z,1.50
2023-05-08T12:17:39.860Z,1.70
2023-05-08T12:20:18.082Z,1.80
2023-05-08T12:22:52.850Z,1.70
2023-05-08T12:25:20.687Z,1.50
2023-05-08T12:27:48.224Z,1.77
2023-05-08T12:30:16.482Z,1.53
2023-05-08T12:32:44.746Z,1.77
2023-05-08T12:35:12.972Z,1.63
2023-05-08T12:37:40.850Z,1.80
2023-05-08T12:40:08.769Z,1.90
2023-05-08T12:42:43.007Z,1.00
2023-05-08T12:45:17.372Z,2.13
2023-05-08T12:47:51.352Z,1.20
2023-05-08T12:50:21.137Z,1.20
2023-05-08T12:52:51.636Z,1.37
2023-05-08T12:55:26.437Z,1.57
2023-05-08T12:58:06.312Z,1.37
2023-05-08T13:00:43.715Z,1.43
2023-05-08T13:03:12.104Z,1.07
2023-05-08T13:05:42.494Z,1.17
2023-05-08T13:08:11.000Z,1.57
2023-05-08T13:10:48.261Z,1.20
2023-05-08T13:13:19.261Z,1.53
2023-05-08T13:15:46.607Z,1.57
2023-05-08T13:18:14.909Z,1.60
2023-05-08T13:20:42.195Z,2.00
2023-05-08T13:23:09.989Z,2.20
2023-05-08T13:25:38.159Z,4.20
2023-05-08T13:28:05.990Z,1.80
2023-05-08T13:30:33.323Z,1.83
2023-05-08T13:33:00.734Z,1.80
2023-05-08T13:35:30.997Z,1.73
2023-05-08T13:37:58.903Z,2.37
2023-05-08T13:40:26.604Z,2.33
2023-05-08T13:42:53.955Z,1.97
2023-05-08T13:45:21.330Z,2.47
2023-05-08T13:47:49.454Z,1.80
2023-05-08T13:50:18.380Z,2.07
2023-05-08T13:52:45.810Z,2.43
2023-05-08T13:55:13.709Z,1.83
2023-05-08T13:57:41.635Z,2.10
2023-05-08T14:00:09.560Z,2.30
2023-05-08T14:02:37.992Z,2.37
2023-05-08T14:05:08.033Z,1.70
2023-05-08T14:07:35.754Z,1.40
2023-05-08T14:10:03.132Z,1.90
2023-05-08T14:12:30.407Z,2.03
2023-05-08T14:14:58.399Z,1.70
2023-05-08T14:17:25.654Z,2.30
2023-05-08T14:19:53.111Z,1.77
2023-05-08T14:22:20.453Z,1.90
2023-05-08T14:24:47.665Z,1.90
2023-05-08T14:27:15.712Z,1.87
2023-05-08T14:29:42.902Z,2.10
2023-05-08T14:32:11.125Z,2.00
2023-05-08T14:34:38.411Z,2.03
2023-05-08T14:37:05.820Z,2.43
2023-05-08T14:39:33.065Z,1.90
2023-05-08T14:42:21.528Z,2.20
2023-05-08T14:44:49.430Z,2.30
2023-05-08T14:47:16.874Z,2.17
2023-05-08T14:49:44.120Z,2.13
2023-05-08T14:52:11.287Z,2.03
2023-05-08T14:54:38.978Z,2.00
2023-05-08T14:57:06.407Z,2.17
2023-05-08T14:59:34.081Z,2.50
2023-05-08T15:02:01.475Z,2.13
2023-05-08T15:04:29.004Z,1.63
2023-05-08T15:06:56.282Z,2.13
2023-05-08T15:09:23.570Z,2.10
2023-05-08T15:11:50.844Z,2.43
2023-05-08T15:14:18.120Z,2.20
2023-05-08T15:16:45.380Z,2.50
2023-05-08T15:19:12.587Z,2.37
2023-05-08T15:21:39.782Z,1.83
2023-05-08T15:24:07.204Z,2.53
2023-05-08T15:26:34.466Z,2.50
2023-05-08T15:29:01.739Z,2.30
2023-05-08T15:31:29.048Z,2.40
2023-05-08T15:33:56.330Z,2.17
2023-05-08T15:36:23.855Z,2.27
2023-05-08T15:38:53.901Z,2.33
2023-05-08T15:41:21.817Z,2.50
2023-05-08T15:43:49.088Z,2.30
2023-05-08T15:46:16.530Z,2.20
2023-05-08T15:48:43.886Z,2.77
2023-05-08T15:51:11.574Z,2.50
2023-05-08T15:53:38.952Z,2.30
2023-05-08T15:56:06.732Z,3.90
2023-05-08T15:58:34.670Z,2.73
2023-05-08T16:01:02.024Z,2.97
2023-05-08T16:03:29.396Z,2.37
2023-05-08T16:05:57.109Z,2.40
2023-05-08T16:08:24.659Z,2.50
2023-05-08T16:10:54.829Z,2.63
2023-05-08T16:13:22.356Z,2.17
2023-05-08T16:15:50.144Z,2.33
2023-05-08T16:18:17.492Z,2.47
2023-05-08T16:20:44.700Z,2.50
2023-05-08T16:23:12.027Z,2.50
2023-05-08T16:25:39.270Z,2.60
2023-05-08T16:28:08.979Z,2.47
2023-05-08T16:30:36.289Z,1.97
2023-05-08T16:33:03.654Z,3.43
2023-05-08T16:35:33.040Z,2.30
2023-05-08T16:38:00.814Z,2.93
2023-05-08T16:40:28.254Z,2.73
2023-05-08T16:42:56.026Z,2.50
2023-05-08T16:45:23.261Z,2.97
2023-05-08T16:47:50.966Z,2.70
2023-05-08T16:50:18.261Z,3.00
2023-05-08T16:52:45.567Z,2.43
2023-05-08T16:55:13.099Z,2.70
2023-05-08T16:57:40.771Z,2.57
2023-05-08T17:00:08.664Z,3.13
2023-05-08T17:02:36.058Z,2.00
2023-05-08T17:05:03.683Z,2.67
2023-05-08T17:07:31.051Z,2.40
2023-05-08T17:09:58.871Z,2.53
2023-05-08T17:12:26.113Z,2.57
2023-05-08T17:14:53.472Z,2.63
2023-05-08T17:17:20.777Z,2.33
2023-05-08T17:19:48.261Z,2.60
2023-05-08T17:22:16.078Z,3.33
2023-05-08T17:24:43.830Z,2.77
2023-05-08T17:27:11.258Z,2.60
2023-05-08T17:29:38.658Z,2.80
2023-05-08T17:32:06.054Z,2.60
2023-05-08T17:34:33.394Z,2.57
2023-05-08T17:37:00.650Z,3.20
2023-05-08T17:39:27.944Z,2.70
2023-05-08T17:41:56.193Z,2.93
2023-05-08T17:44:23.434Z,2.60
2023-05-08T17:46:50.862Z,2.80
2023-05-08T17:49:19.473Z,3.27
2023-05-08T17:51:47.040Z,2.67
2023-05-08T17:54:14.666Z,2.70
2023-05-08T17:56:42.080Z,2.97
2023-05-08T17:59:09.808Z,3.77
2023-05-08T18:01:37.177Z,3.87
2023-05-08T18:04:04.531Z,3.37
2023-05-08T18:06:31.851Z,3.57
2023-05-08T18:09:02.258Z,3.73
2023-05-08T18:11:29.510Z,3.20
2023-05-08T18:13:56.834Z,3.00
2023-05-08T18:16:24.176Z,4.77
2023-05-08T18:18:52.115Z,3.00
2023-05-08T18:21:19.369Z,3.23
2023-05-08T18:23:46.549Z,5.13
2023-05-08T18:26:14.816Z,5.40
2023-05-08T18:28:42.232Z,4.17
2023-05-08T18:31:09.538Z,4.27
2023-05-08T18:33:37.297Z,3.93
2023-05-08T18:36:06.964Z,4.10
2023-05-08T18:38:34.716Z,3.63
2023-05-08T18:41:02.680Z,3.83
2023-05-08T18:43:29.981Z,3.63
2023-05-08T18:45:58.040Z,4.00
2023-05-08T18:48:26.257Z,4.07
2023-05-08T18:50:58.304Z,4.33
2023-05-08T18:53:25.716Z,4.07
2023-05-08T18:55:53.088Z,4.03
2023-05-08T18:58:20.360Z,4.10
2023-05-08T19:00:47.618Z,4.00
2023-05-08T19:03:15.224Z,6.23
2023-05-08T19:05:43.256Z,27.30
2023-05-08T19:08:10.503Z,5.00
2023-05-08T19:10:37.709Z,4.10
2023-05-08T19:13:05.335Z,4.30
2023-05-08T19:15:32.807Z,4.87
2023-05-08T19:17:59.995Z,4.07
2023-05-08T19:20:27.800Z,5.07
2023-05-08T19:22:55.679Z,4.37
2023-05-08T19:25:23.016Z,4.30
2023-05-08T19:27:50.450Z,4.97
2023-05-08T19:30:17.693Z,4.20
2023-05-08T19:32:44.914Z,4.50
2023-05-08T19:35:12.255Z,4.47
2023-05-08T19:37:39.471Z,5.43
2023-05-08T19:40:07.196Z,4.40
2023-05-08T19:42:34.530Z,4.63
2023-05-08T19:45:01.766Z,4.63
2023-05-08T19:47:29.147Z,4.63
2023-05-08T19:49:56.438Z,4.90
2023-05-08T19:52:23.621Z,4.90
2023-05-08T19:54:51.075Z,6.67
2023-05-08T19:57:18.390Z,5.13
2023-05-08T19:59:45.721Z,6.30
2023-05-08T20:02:13.189Z,4.63
2023-05-08T20:04:54.525Z,4.87
2023-05-08T20:07:27.730Z,4.90
2023-05-08T20:09:54.953Z,6.10
2023-05-08T20:12:22.127Z,6.13
2023-05-08T20:14:49.328Z,5.17
2023-05-08T20:17:16.574Z,4.80
2023-05-08T20:19:43.918Z,5.37
2023-05-08T20:22:11.502Z,8.10
2023-05-08T20:24:38.713Z,6.83
2023-05-08T20:27:05.896Z,4.70
2023-05-08T20:29:33.237Z,4.30
2023-05-08T20:32:00.447Z,4.90
2023-05-08T20:34:27.687Z,4.93
2023-05-08T20:36:57.689Z,4.77
2023-05-08T20:39:24.841Z,5.50
2023-05-08T20:41:53.674Z,5.00
2023-05-08T20:44:25.176Z,4.37
2023-05-08T20:46:52.481Z,4.50
2023-05-08T20:49:19.803Z,4.63
2023-05-08T20:51:47.003Z,4.73
2023-05-08T20:54:14.253Z,6.80
2023-05-08T20:56:41.436Z,4.47
2023-05-08T20:59:08.636Z,5.13
2023-05-08T21:01:35.858Z,6.10
2023-05-08T21:04:03.058Z,4.97
2023-05-08T21:06:30.685Z,5.13
2023-05-08T21:08:57.869Z,4.93
2023-05-08T21:11:25.225Z,4.87
2023-05-08T21:13:52.418Z,4.80
2023-05-08T21:16:26.855Z,4.03
2023-05-08T21:18:56.679Z,4.40
2023-05-08T21:21:25.543Z,4.37
2023-05-08T21:23:53.444Z,4.03
2023-05-08T21:26:23.583Z,4.87
2023-05-08T21:28:52.386Z,3.67
2023-05-08T21:31:20.184Z,3.90
2023-05-08T21:33:47.592Z,4.23
2023-05-08T21:36:14.873Z,4.57
2023-05-08T21:38:42.235Z,4.93
2023-05-08T21:41:09.583Z,4.20
2023-05-08T21:43:37.163Z,4.80
2023-05-08T21:46:05.384Z,3.63
2023-05-08T21:48:32.698Z,4.30
2023-05-08T21:51:00.175Z,3.93
2023-05-08T21:53:27.470Z,3.30
2023-05-08T21:55:54.739Z,3.67
2023-05-08T21:58:21.996Z,3.80
2023-05-08T22:00:49.249Z,4.13
2023-05-08T22:03:16.604Z,3.67
2023-05-08T22:05:44.055Z,4.00
2023-05-08T22:08:11.471Z,4.30
2023-05-08T22:10:38.907Z,4.10
2023-05-08T22:13:07.404Z,5.40
2023-05-08T22:15:34.958Z,4.27
2023-05-08T22:18:02.853Z,4.93
2023-05-08T22:20:30.565Z,4.03
2023-05-08T22:22:57.898Z,4.27
2023-05-08T22:25:26.748Z,6.20
2023-05-08T22:27:54.332Z,3.73
2023-05-08T22:30:21.757Z,4.33
2023-05-08T22:32:54.267Z,3.50
2023-05-08T22:35:23.319Z,3.87
2023-05-08T22:37:50.782Z,3.60
2023-05-08T22:40:18.139Z,3.73
2023-05-08T22:42:46.085Z,3.47
2023-05-08T22:45:13.688Z,4.33
2023-05-08T22:47:41.358Z,3.57
2023-05-08T22:50:09.224Z,4.33
2023-05-08T22:52:36.939Z,3.63
2023-05-08T22:55:04.766Z,4.53
2023-05-08T22:57:31.997Z,3.80
2023-05-08T22:59:59.430Z,3.40
2023-05-08T23:02:32.006Z,3.47
2023-05-08T23:04:59.780Z,3.50
2023-05-08T23:07:26.945Z,4.43
2023-05-08T23:09:54.107Z,4.03
2023-05-08T23:12:21.604Z,4.00
2023-05-08T23:14:48.808Z,3.67
2023-05-08T23:17:16.052Z,3.57
2023-05-08T23:19:43.421Z,3.23
2023-05-08T23:22:10.580Z,3.73
2023-05-08T23:24:37.779Z,3.00
2023-05-08T23:27:05.060Z,4.17
2023-05-08T23:29:32.281Z,3.67
2023-05-08T23:31:59.928Z,3.30
2023-05-08T23:34:27.173Z,3.50
2023-05-08T23:36:54.459Z,3.37
2023-05-08T23:39:21.727Z,3.33
2023-05-08T23:41:48.864Z,3.60
2023-05-08T23:44:16.782Z,3.27
2023-05-08T23:46:44.070Z,3.40
2023-05-08T23:49:11.423Z,3.33
2023-05-08T23:51:38.614Z,3.60
2023-05-08T23:54:06.875Z,3.63
2023-05-08T23:56:34.168Z,3.80
2023-05-08T23:59:01.396Z,4.30
